createdAt,value
2022-11-28T00:01:26.950Z,65.95
2022-11-28T00:03:53.744Z,66.86
2022-11-28T00:06:20.630Z,68.49
2022-11-28T00:08:47.827Z,66.71
2022-11-28T00:11:16.468Z,67.67
2022-11-28T00:13:43.753Z,66.22
2022-11-28T00:16:15.822Z,66.77
2022-11-28T00:18:42.703Z,67.60
2022-11-28T00:21:12.147Z,65.96
2022-11-28T00:23:39.276Z,66.57
2022-11-28T00:26:11.512Z,67.00
2022-11-28T00:28:39.346Z,67.59
2022-11-28T00:31:06.711Z,67.12
2022-11-28T00:33:33.907Z,67.84
2022-11-28T00:36:02.411Z,68.43
2022-11-28T00:38:29.963Z,67.61
2022-11-28T00:41:03.728Z,67.19
2022-11-28T00:43:30.525Z,67.68
2022-11-28T00:45:57.788Z,67.65
2022-11-28T00:48:24.960Z,67.29
2022-11-28T00:50:52.543Z,67.29
2022-11-28T00:53:19.410Z,67.84
2022-11-28T00:55:46.372Z,67.78
2022-11-28T00:58:13.125Z,67.96
2022-11-28T01:00:40.013Z,68.66
2022-11-28T01:03:09.021Z,68.33
2022-11-28T01:05:40.542Z,68.02
2022-11-28T01:08:07.641Z,68.68
2022-11-28T01:10:34.314Z,68.19
2022-11-28T01:13:01.088Z,69.42
2022-11-28T01:15:27.843Z,69.38
2022-11-28T01:17:54.462Z,68.77
2022-11-28T01:20:21.102Z,70.41
2022-11-28T01:22:47.792Z,71.00
2022-11-28T01:25:14.545Z,70.43
2022-11-28T01:27:41.189Z,70.56
2022-11-28T01:30:08.441Z,70.63
2022-11-28T01:32:35.291Z,67.38
2022-11-28T01:35:01.940Z,67.62
2022-11-28T01:37:30.482Z,67.18
2022-11-28T01:39:57.098Z,67.84
2022-11-28T01:42:23.968Z,68.10
2022-11-28T01:44:50.528Z,68.66
2022-11-28T01:47:25.455Z,70.74
2022-11-28T01:49:54.723Z,69.97
2022-11-28T01:52:22.824Z,69.90
2022-11-28T01:54:55.225Z,67.55
2022-11-28T01:57:25.278Z,68.25
2022-11-28T02:00:15.789Z,68.40
2022-11-28T02:02:49.000Z,69.47
2022-11-28T02:05:18.590Z,67.31
2022-11-28T02:07:47.308Z,66.85
2022-11-28T02:10:32.853Z,67.99
2022-11-28T02:13:25.104Z,69.17
2022-11-28T02:16:24.995Z,68.29
2022-11-28T02:19:27.008Z,67.53
2022-11-28T02:22:16.208Z,67.66
2022-11-28T02:25:07.104Z,67.50
2022-11-28T02:28:02.245Z,67.24
2022-11-28T02:31:09.823Z,66.26
2022-11-28T02:33:46.082Z,66.89
2022-11-28T02:36:36.902Z,65.81
2022-11-28T02:39:23.404Z,66.27
2022-11-28T02:42:01.499Z,67.02
2022-11-28T02:44:52.698Z,66.66
2022-11-28T02:47:27.174Z,68.05
2022-11-28T02:50:05.706Z,69.16
2022-11-28T02:52:40.271Z,68.83
2022-11-28T02:55:08.300Z,68.45
2022-11-28T02:57:40.363Z,67.94
2022-11-28T03:00:28.621Z,68.64
2022-11-28T03:03:11.001Z,68.12
2022-11-28T03:06:03.924Z,68.00
2022-11-28T03:08:47.882Z,68.18
2022-11-28T03:11:26.899Z,68.18
2022-11-28T03:14:35.481Z,68.82
2022-11-28T03:17:21.571Z,68.48
2022-11-28T03:19:57.213Z,68.52
2022-11-28T03:22:35.737Z,67.50
2022-11-28T03:25:10.935Z,67.99
2022-11-28T03:27:47.750Z,69.22
2022-11-28T03:30:25.866Z,69.10
2022-11-28T03:32:54.905Z,68.80
2022-11-28T03:35:25.106Z,65.79
2022-11-28T03:37:57.357Z,65.46
2022-11-28T03:40:30.681Z,66.92
2022-11-28T03:43:08.059Z,67.87
2022-11-28T03:45:40.832Z,67.50
2022-11-28T03:48:18.425Z,66.27
2022-11-28T03:50:55.161Z,66.15
2022-11-28T03:53:27.468Z,66.26
2022-11-28T03:56:21.377Z,66.94
2022-11-28T03:58:56.412Z,66.93
2022-11-28T04:01:54.841Z,68.18
2022-11-28T04:04:34.945Z,68.70
2022-11-28T04:07:39.882Z,69.00
2022-11-28T04:10:20.314Z,68.58
2022-11-28T04:12:59.129Z,69.13
2022-11-28T04:15:54.478Z,69.64
2022-11-28T04:18:30.295Z,69.54
2022-11-28T04:21:14.475Z,69.15
2022-11-28T04:23:44.215Z,70.84
2022-11-28T04:26:15.385Z,69.46
2022-11-28T04:28:44.617Z,69.11
2022-11-28T04:31:12.702Z,69.36
2022-11-28T04:33:44.488Z,69.69
2022-11-28T04:36:12.763Z,71.64
2022-11-28T04:38:40.553Z,70.60
2022-11-28T04:41:14.018Z,70.11
2022-11-28T04:43:48.641Z,70.50
2022-11-28T04:46:21.698Z,71.20
2022-11-28T04:48:48.449Z,71.69
2022-11-28T04:51:27.480Z,72.30
2022-11-28T04:54:06.155Z,71.93
2022-11-28T04:56:47.549Z,69.02
2022-11-28T04:59:15.303Z,71.02
2022-11-28T05:01:44.171Z,70.08
2022-11-28T05:04:11.189Z,70.84
2022-11-28T05:06:37.938Z,69.01
2022-11-28T05:09:05.434Z,70.42
2022-11-28T05:11:32.343Z,71.20
2022-11-28T05:13:59.006Z,69.29
2022-11-28T05:16:26.000Z,69.94
2022-11-28T05:18:52.968Z,70.15
2022-11-28T05:21:20.003Z,69.90
2022-11-28T05:23:47.342Z,70.10
2022-11-28T05:26:20.500Z,68.24
2022-11-28T05:28:49.994Z,67.54
2022-11-28T05:31:19.074Z,69.46
2022-11-28T05:33:46.069Z,70.35
2022-11-28T05:36:14.256Z,68.19
2022-11-28T05:38:41.673Z,67.97
2022-11-28T05:41:08.879Z,68.85
2022-11-28T05:43:37.131Z,69.66
2022-11-28T05:46:07.038Z,69.84
2022-11-28T05:48:33.796Z,68.71
2022-11-28T05:51:00.663Z,68.17
2022-11-28T05:53:27.400Z,68.36
2022-11-28T05:55:54.007Z,68.23
2022-11-28T05:58:20.608Z,68.59
2022-11-28T06:00:47.513Z,68.54
2022-11-28T06:03:14.339Z,68.76
2022-11-28T06:05:43.684Z,69.55
2022-11-28T06:08:14.112Z,68.45
2022-11-28T06:10:41.439Z,69.08
2022-11-28T06:13:08.826Z,69.77
2022-11-28T06:15:38.280Z,69.60
2022-11-28T06:18:06.002Z,69.04
2022-11-28T06:20:35.001Z,69.41
2022-11-28T06:23:01.679Z,66.66
2022-11-28T06:25:28.548Z,66.64
2022-11-28T06:27:55.189Z,67.50
2022-11-28T06:30:21.887Z,67.46
2022-11-28T06:32:48.806Z,67.64
2022-11-28T06:35:15.539Z,67.65
2022-11-28T06:37:42.617Z,69.61
2022-11-28T06:40:09.686Z,69.47
2022-11-28T06:42:37.019Z,69.88
2022-11-28T06:45:04.932Z,71.33
2022-11-28T06:47:32.299Z,68.92
2022-11-28T06:49:58.930Z,68.53
2022-11-28T06:52:25.591Z,68.32
2022-11-28T06:54:52.427Z,70.69
2022-11-28T06:57:19.269Z,70.50
2022-11-28T06:59:45.898Z,70.38
2022-11-28T07:02:13.064Z,70.66
2022-11-28T07:04:39.825Z,71.68
2022-11-28T07:07:12.540Z,72.77
2022-11-28T07:09:42.006Z,72.14
2022-11-28T07:12:08.916Z,71.93
2022-11-28T07:14:36.425Z,70.98
2022-11-28T07:17:03.119Z,71.59
2022-11-28T07:19:29.826Z,69.99
2022-11-28T07:21:56.530Z,70.73
2022-11-28T07:24:25.604Z,70.31
2022-11-28T07:26:52.260Z,71.43
2022-11-28T07:29:19.783Z,72.12
2022-11-28T07:31:46.475Z,71.88
2022-11-28T07:34:13.364Z,71.07
2022-11-28T07:36:40.513Z,70.45
2022-11-28T07:39:08.805Z,69.86
2022-11-28T07:41:35.891Z,70.62
2022-11-28T07:44:04.379Z,71.82
2022-11-28T07:46:33.300Z,71.92
2022-11-28T07:49:00.502Z,71.97
2022-11-28T07:51:29.522Z,71.16
2022-11-28T07:53:56.799Z,71.19
2022-11-28T07:56:34.989Z,72.29
2022-11-28T07:59:06.649Z,72.37
2022-11-28T08:01:37.689Z,70.46
2022-11-28T08:04:07.725Z,71.09
2022-11-28T08:06:40.824Z,72.06
2022-11-28T08:09:08.125Z,71.80
2022-11-28T08:11:35.712Z,71.58
2022-11-28T08:14:02.777Z,71.80
2022-11-28T08:16:30.265Z,71.15
2022-11-28T08:18:59.975Z,70.93
2022-11-28T08:21:32.025Z,70.84
2022-11-28T08:24:01.143Z,71.57
2022-11-28T08:26:30.569Z,71.07
2022-11-28T08:28:58.456Z,71.30
2022-11-28T08:31:37.094Z,71.15
2022-11-28T08:34:09.646Z,70.16
2022-11-28T08:36:36.957Z,70.51
2022-11-28T08:41:52.829Z,71.41
2022-11-28T08:44:19.511Z,71.79
2022-11-28T08:46:46.171Z,71.86
2022-11-28T08:49:13.013Z,70.19
2022-11-28T08:51:39.942Z,71.21
2022-11-28T08:54:06.644Z,70.68
2022-11-28T08:56:34.087Z,71.39
2022-11-28T08:59:01.695Z,70.45
2022-11-28T09:01:28.557Z,70.95
2022-11-28T09:03:56.189Z,71.39
2022-11-28T09:06:23.807Z,71.58
2022-11-28T09:08:51.146Z,70.00
2022-11-28T09:11:20.246Z,69.97
2022-11-28T09:13:47.215Z,70.33
2022-11-28T09:16:14.946Z,70.32
2022-11-28T09:18:42.059Z,70.79
2022-11-28T09:21:11.936Z,70.04
2022-11-28T09:23:41.223Z,70.34
2022-11-28T09:26:29.868Z,71.24
2022-11-28T09:28:56.814Z,70.62
2022-11-28T09:31:23.551Z,69.94
2022-11-28T09:33:51.713Z,70.64
2022-11-28T09:36:21.094Z,71.25
2022-11-28T09:38:48.035Z,70.47
2022-11-28T09:41:23.352Z,71.35
2022-11-28T09:43:55.019Z,71.36
2022-11-28T09:46:28.849Z,72.00
2022-11-28T09:49:00.131Z,69.23
2022-11-28T09:51:54.251Z,69.54
2022-11-28T09:54:59.563Z,69.40
2022-11-28T09:57:36.039Z,71.33
2022-11-28T10:00:05.015Z,70.99
2022-11-28T10:02:49.278Z,71.16
2022-11-28T10:05:48.995Z,72.42
2022-11-28T10:08:47.773Z,71.37
2022-11-28T10:11:32.363Z,71.55
2022-11-28T10:14:21.258Z,71.82
2022-11-28T10:16:58.902Z,72.50
2022-11-28T10:20:00.691Z,72.17
2022-11-28T10:22:44.490Z,75.06
2022-11-28T10:25:19.849Z,73.07
2022-11-28T10:27:47.966Z,73.50
2022-11-28T10:30:23.667Z,75.83
2022-11-28T10:33:03.954Z,75.34
2022-11-28T10:35:44.407Z,76.75
2022-11-28T10:38:16.380Z,78.03
2022-11-28T10:40:50.154Z,78.50
2022-11-28T10:43:16.756Z,78.07
2022-11-28T10:46:34.167Z,79.43
2022-11-28T10:49:26.881Z,78.15
2022-11-28T10:52:03.943Z,78.75
2022-11-28T10:54:51.912Z,78.39
2022-11-28T10:57:26.440Z,77.93
2022-11-28T11:00:13.666Z,77.08
2022-11-28T11:02:54.809Z,77.30
2022-11-28T11:05:25.737Z,77.36
2022-11-28T11:07:54.842Z,77.66
2022-11-28T11:10:26.893Z,78.66
2022-11-28T11:12:53.786Z,78.24
2022-11-28T11:15:31.963Z,79.06
2022-11-28T11:18:04.357Z,78.67
2022-11-28T11:20:39.354Z,78.76
2022-11-28T11:23:22.668Z,79.58
2022-11-28T11:25:58.244Z,79.35
2022-11-28T11:28:47.588Z,79.84
2022-11-28T11:31:37.957Z,79.19
2022-11-28T11:34:16.501Z,80.15
2022-11-28T11:36:43.120Z,80.11
2022-11-28T11:39:20.377Z,80.93
2022-11-28T11:42:10.649Z,79.40
2022-11-28T11:44:37.695Z,79.26
2022-11-28T11:47:07.691Z,81.08
2022-11-28T11:49:39.966Z,81.28
2022-11-28T11:52:20.633Z,82.04
2022-11-28T11:54:47.189Z,82.05
2022-11-28T11:57:32.707Z,82.38
2022-11-28T12:00:10.879Z,81.56
2022-11-28T12:02:55.635Z,81.62
2022-11-28T12:05:41.785Z,82.86
2022-11-28T12:08:34.765Z,82.73
2022-11-28T12:11:15.399Z,82.49
2022-11-28T12:13:42.577Z,81.70
2022-11-28T12:16:47.464Z,82.47
2022-11-28T12:19:25.020Z,81.08
2022-11-28T12:22:07.926Z,82.43
2022-11-28T12:24:44.136Z,83.01
2022-11-28T12:27:40.156Z,83.29
2022-11-28T12:30:28.957Z,83.25
2022-11-28T12:33:21.893Z,83.34
2022-11-28T12:36:09.978Z,83.71
2022-11-28T12:39:00.038Z,84.45
2022-11-28T12:41:46.231Z,84.40
2022-11-28T12:44:31.793Z,83.49
2022-11-28T12:47:18.341Z,83.00
2022-11-28T12:50:16.546Z,83.20
2022-11-28T12:52:46.291Z,83.21
2022-11-28T12:55:33.427Z,82.25
2022-11-28T12:58:10.505Z,82.32
2022-11-28T13:00:50.544Z,81.83
2022-11-28T13:03:48.372Z,80.26
2022-11-28T13:06:32.743Z,80.41
2022-11-28T13:09:05.277Z,81.18
2022-11-28T13:11:43.938Z,82.46
2022-11-28T13:14:36.704Z,81.97
2022-11-28T13:17:24.942Z,82.06
2022-11-28T13:20:16.778Z,83.09
2022-11-28T13:23:03.593Z,82.60
2022-11-28T13:25:58.231Z,81.88
2022-11-28T13:28:38.204Z,81.40
2022-11-28T13:31:17.793Z,80.90
2022-11-28T13:33:51.340Z,81.43
2022-11-28T13:39:31.489Z,81.97
2022-11-28T13:45:19.745Z,81.71
2022-11-28T13:47:47.216Z,82.08
2022-11-28T13:50:25.683Z,82.55
2022-11-28T13:53:22.820Z,82.68
2022-11-28T13:55:51.045Z,83.09
2022-11-28T13:58:32.118Z,83.39
2022-11-28T14:01:20.635Z,83.94
2022-11-28T14:03:58.931Z,83.14
2022-11-28T14:06:29.478Z,82.58
2022-11-28T14:09:05.705Z,83.19
2022-11-28T14:11:53.909Z,83.29
2022-11-28T14:14:45.123Z,83.29
2022-11-28T14:17:19.554Z,84.00
2022-11-28T14:20:13.040Z,84.93
2022-11-28T14:22:46.543Z,84.75
2022-11-28T14:25:25.616Z,84.09
2022-11-28T14:27:59.841Z,84.34
2022-11-28T14:30:33.773Z,84.40
2022-11-28T14:33:06.079Z,83.17
2022-11-28T14:35:54.052Z,82.21
2022-11-28T14:38:41.927Z,82.75
2022-11-28T14:41:12.754Z,82.30
2022-11-28T14:43:47.553Z,82.03
2022-11-28T14:46:29.395Z,82.40
2022-11-28T14:49:00.139Z,81.41
2022-11-28T14:51:48.162Z,80.70
2022-11-28T14:54:25.445Z,81.29
2022-11-28T14:56:59.474Z,82.07
2022-11-28T14:59:40.043Z,82.29
2022-11-28T15:02:25.700Z,81.25
2022-11-28T15:05:30.398Z,81.58
2022-11-28T15:08:07.759Z,80.94
2022-11-28T15:11:06.286Z,81.46
2022-11-28T15:13:49.488Z,83.12
2022-11-28T15:16:19.521Z,83.82
2022-11-28T15:19:00.420Z,84.37
2022-11-28T15:21:28.218Z,83.09
2022-11-28T15:23:56.485Z,83.12
2022-11-28T15:26:29.410Z,83.54
2022-11-28T15:29:20.743Z,80.91
2022-11-28T15:31:50.687Z,78.51
2022-11-28T15:34:37.847Z,79.33
2022-11-28T15:37:07.715Z,79.99
2022-11-28T15:39:41.670Z,80.40
2022-11-28T15:42:21.348Z,80.63
2022-11-28T15:44:57.913Z,81.19
2022-11-28T15:47:26.086Z,81.89
2022-11-28T15:50:11.534Z,82.18
2022-11-28T15:52:38.364Z,82.64
2022-11-28T15:55:16.559Z,82.95
2022-11-28T15:57:43.311Z,83.91
2022-11-28T16:00:17.720Z,84.59
2022-11-28T16:02:45.765Z,83.94
2022-11-28T16:05:21.696Z,84.65
2022-11-28T16:07:58.239Z,83.71
2022-11-28T16:10:29.129Z,83.96
2022-11-28T16:13:03.207Z,81.95
2022-11-28T16:15:32.054Z,82.13
2022-11-28T16:17:58.688Z,81.92
2022-11-28T16:20:27.963Z,83.03
2022-11-28T16:23:07.181Z,83.76
2022-11-28T16:25:33.776Z,82.68
2022-11-28T16:28:00.785Z,82.49
2022-11-28T16:30:27.486Z,84.49
2022-11-28T16:32:55.606Z,85.23
2022-11-28T16:35:33.171Z,85.21
2022-11-28T16:38:18.198Z,85.43
2022-11-28T16:40:45.070Z,85.78
2022-11-28T16:43:34.205Z,85.96
2022-11-28T16:46:03.474Z,84.27
2022-11-28T16:48:34.463Z,86.18
2022-11-28T16:51:14.303Z,86.75
2022-11-28T16:53:49.306Z,86.80
2022-11-28T16:56:29.594Z,86.95
2022-11-28T16:59:16.432Z,87.38
2022-11-28T17:01:45.937Z,86.44
2022-11-28T17:04:24.440Z,86.76
2022-11-28T17:06:53.515Z,86.99
2022-11-28T17:09:20.949Z,86.52
2022-11-28T17:12:02.978Z,87.03
2022-11-28T17:14:29.605Z,86.71
2022-11-28T17:16:56.409Z,87.33
2022-11-28T17:19:23.536Z,87.39
2022-11-28T17:21:53.154Z,87.12
2022-11-28T17:24:22.422Z,86.41
2022-11-28T17:26:49.925Z,85.75
2022-11-28T17:29:16.998Z,85.99
2022-11-28T17:31:46.713Z,85.20
2022-11-28T17:34:28.111Z,85.21
2022-11-28T17:36:55.019Z,86.12
2022-11-28T17:39:21.749Z,86.18
2022-11-28T17:41:49.323Z,85.72
2022-11-28T17:44:24.566Z,85.67
2022-11-28T17:46:52.778Z,85.38
2022-11-28T17:49:20.381Z,85.78
2022-11-28T17:51:49.393Z,85.40
2022-11-28T17:54:18.511Z,85.27
2022-11-28T17:56:47.561Z,86.21
2022-11-28T17:59:16.482Z,86.67
2022-11-28T18:01:44.300Z,87.00
2022-11-28T18:04:11.698Z,86.05
2022-11-28T18:06:38.843Z,85.98
2022-11-28T18:09:11.584Z,86.65
2022-11-28T18:11:40.639Z,83.67
2022-11-28T18:14:08.579Z,83.66
2022-11-28T18:16:40.098Z,85.35
2022-11-28T18:19:07.331Z,86.01
2022-11-28T18:21:34.190Z,85.96
2022-11-28T18:24:01.217Z,86.71
2022-11-28T18:26:28.309Z,86.75
2022-11-28T18:28:55.822Z,86.52
2022-11-28T18:31:27.857Z,85.95
2022-11-28T18:34:01.508Z,86.50
2022-11-28T18:36:33.627Z,87.30
2022-11-28T18:39:05.313Z,87.77
2022-11-28T18:41:33.129Z,87.85
2022-11-28T18:44:02.355Z,88.05
2022-11-28T18:46:30.864Z,87.08
2022-11-28T18:48:57.958Z,85.86
2022-11-28T18:51:25.956Z,85.30
2022-11-28T18:53:54.101Z,87.37
2022-11-28T18:56:21.970Z,88.57
2022-11-28T18:58:54.089Z,90.05
2022-11-28T19:01:25.122Z,90.32
2022-11-28T19:03:55.342Z,91.91
2022-11-28T19:06:23.622Z,91.50
2022-11-28T19:08:55.420Z,91.46
2022-11-28T19:11:22.663Z,91.33
2022-11-28T19:13:53.526Z,91.35
2022-11-28T19:16:23.648Z,92.49
2022-11-28T19:18:50.495Z,92.02
2022-11-28T19:21:22.469Z,91.73
2022-11-28T19:23:49.749Z,91.89
2022-11-28T19:26:19.708Z,92.83
2022-11-28T19:28:48.205Z,93.56
2022-11-28T19:31:23.803Z,93.48
2022-11-28T19:34:00.922Z,94.37
2022-11-28T19:36:32.909Z,93.08
2022-11-28T19:39:00.171Z,92.23
2022-11-28T19:41:27.524Z,91.53
2022-11-28T19:43:54.738Z,91.45
2022-11-28T19:46:21.619Z,92.15
2022-11-28T19:48:49.603Z,91.56
2022-11-28T19:51:16.593Z,91.23
2022-11-28T19:53:44.086Z,93.02
2022-11-28T19:56:19.246Z,94.33
2022-11-28T19:58:47.080Z,94.54
2022-11-28T20:01:17.182Z,92.37
2022-11-28T20:03:47.504Z,91.61
2022-11-28T20:06:19.418Z,91.08
2022-11-28T20:08:48.504Z,90.69
2022-11-28T20:11:24.376Z,91.53
2022-11-28T20:14:04.040Z,94.20
2022-11-28T20:16:31.691Z,94.87
2022-11-28T20:19:00.607Z,95.68
2022-11-28T20:21:29.828Z,95.23
2022-11-28T20:24:03.078Z,93.92
2022-11-28T20:26:33.405Z,93.24
2022-11-28T20:29:00.165Z,95.00
2022-11-28T20:31:30.977Z,94.51
2022-11-28T20:33:58.588Z,95.23
2022-11-28T20:36:27.720Z,95.97
2022-11-28T20:38:56.198Z,96.10
2022-11-28T20:41:24.739Z,95.86
2022-11-28T20:43:51.826Z,96.32
2022-11-28T20:46:28.088Z,97.24
2022-11-28T20:48:57.337Z,95.98
2022-11-28T20:51:25.922Z,95.82
2022-11-28T20:53:54.179Z,97.47
2022-11-28T20:56:23.858Z,97.66
2022-11-28T20:58:51.339Z,98.37
2022-11-28T21:01:21.351Z,97.51
2022-11-28T21:03:48.217Z,96.84
2022-11-28T21:06:15.285Z,96.20
2022-11-28T21:08:42.409Z,98.46
2022-11-28T21:11:25.530Z,99.79
2022-11-28T21:14:01.207Z,97.05
2022-11-28T21:16:31.411Z,98.04
2022-11-28T21:19:07.639Z,97.42
2022-11-28T21:21:36.027Z,96.36
2022-11-28T21:24:09.469Z,97.46
2022-11-28T21:26:40.943Z,98.11
2022-11-28T21:29:11.716Z,99.01
2022-11-28T21:31:41.946Z,99.63
2022-11-28T21:34:14.024Z,100.00
2022-11-28T21:36:41.205Z,99.84
2022-11-28T21:39:09.090Z,98.10
2022-11-28T21:41:35.782Z,96.76
2022-11-28T21:44:03.944Z,100.00
2022-11-28T21:46:30.704Z,99.48
2022-11-28T21:48:58.382Z,98.44
2022-11-28T21:51:25.924Z,97.54
2022-11-28T21:53:52.609Z,97.90
2022-11-28T21:56:22.545Z,99.39
2022-11-28T21:58:49.219Z,100.00
2022-11-28T22:01:16.266Z,97.98
2022-11-28T22:03:43.785Z,95.95
2022-11-28T22:06:19.436Z,96.19
2022-11-28T22:08:48.448Z,96.19
2022-11-28T22:11:16.252Z,96.35
2022-11-28T22:13:47.450Z,97.36
2022-11-28T22:16:20.003Z,98.51
2022-11-28T22:18:48.909Z,99.12
2022-11-28T22:24:04.034Z,99.08
2022-11-28T22:26:32.345Z,98.74
2022-11-28T22:28:59.288Z,98.57
2022-11-28T22:31:26.171Z,99.59
2022-11-28T22:33:52.965Z,99.04
2022-11-28T22:36:21.519Z,99.40
2022-11-28T22:38:49.414Z,99.59
2022-11-28T22:41:24.807Z,99.52
2022-11-28T22:43:55.795Z,100.00
2022-11-28T22:46:22.838Z,100.00
2022-11-28T22:48:50.522Z,100.00
2022-11-28T22:51:23.359Z,100.00
2022-11-28T22:53:59.325Z,100.00
2022-11-28T22:56:28.295Z,100.00
2022-11-28T22:58:55.246Z,100.00
2022-11-28T23:01:26.486Z,100.00
2022-11-28T23:03:54.231Z,100.00
2022-11-28T23:06:24.748Z,100.00
2022-11-28T23:08:55.720Z,100.00
2022-11-28T23:11:26.723Z,100.00
2022-11-28T23:13:54.282Z,100.00
2022-11-28T23:16:24.439Z,100.00
2022-11-28T23:18:55.100Z,100.00
2022-11-28T23:21:23.676Z,100.00
2022-11-28T23:23:51.407Z,100.00
2022-11-28T23:26:24.323Z,100.00
2022-11-28T23:28:51.970Z,100.00
2022-11-28T23:31:24.345Z,100.00
2022-11-28T23:33:51.121Z,100.00
2022-11-28T23:36:21.023Z,100.00
2022-11-28T23:38:50.790Z,100.00
2022-11-28T23:41:17.804Z,100.00
2022-11-28T23:43:44.651Z,100.00
2022-11-28T23:46:13.065Z,100.00
2022-11-28T23:48:40.137Z,100.00
2022-11-28T23:51:07.450Z,100.00
2022-11-28T23:53:34.600Z,100.00
2022-11-28T23:56:22.248Z,100.00
2022-11-28T23:58:49.551Z,100.00
